sensor_id;sensor_type;location;lat;lon;timestamp;temperature;humidity
11043;DHT22;5574;48.786;10.120;2023-03-31T00:00:12;8.70;99.90
11043;DHT22;5574;48.786;10.120;2023-03-31T00:02:39;8.70;99.90
11043;DHT22;5574;48.786;10.120;2023-03-31T00:05:07;8.60;99.90
11043;DHT22;5574;48.786;10.120;2023-03-31T00:07:34;8.60;99.90
11043;DHT22;5574;48.786;10.120;2023-03-31T00:10:03;8.60;99.90
11043;DHT22;5574;48.786;10.120;2023-03-31T00:12:31;8.60;99.90
11043;DHT22;5574;48.786;10.120;2023-03-31T00:14:58;8.60;99.90
11043;DHT22;5574;48.786;10.120;2023-03-31T00:17:24;8.60;99.90
11043;DHT22;5574;48.786;10.120;2023-03-31T00:19:51;8.60;99.90
11043;DHT22;5574;48.786;10.120;2023-03-31T00:22:18;8.60;99.90
11043;DHT22;5574;48.786;10.120;2023-03-31T00:24:46;8.50;99.90
11043;DHT22;5574;48.786;10.120;2023-03-31T00:27:13;8.50;99.90
11043;DHT22;5574;48.786;10.120;2023-03-31T00:29:41;8.50;99.90
11043;DHT22;5574;48.786;10.120;2023-03-31T00:32:08;8.50;99.90
11043;DHT22;5574;48.786;10.120;2023-03-31T00:34:35;8.50;99.90
11043;DHT22;5574;48.786;10.120;2023-03-31T00:37:02;8.50;99.90
11043;DHT22;5574;48.786;10.120;2023-03-31T00:39:30;8.40;99.90
11043;DHT22;5574;48.786;10.120;2023-03-31T00:42:01;8.40;99.90
11043;DHT22;5574;48.786;10.120;2023-03-31T00:44:29;8.40;99.90
11043;DHT22;5574;48.786;10.120;2023-03-31T00:47:02;8.30;99.90
11043;DHT22;5574;48.786;10.120;2023-03-31T00:49:33;8.40;99.90
11043;DHT22;5574;48.786;10.120;2023-03-31T00:52:03;8.30;99.90
11043;DHT22;5574;48.786;10.120;2023-03-31T00:54:31;8.30;99.90
11043;DHT22;5574;48.786;10.120;2023-03-31T00:56:59;8.30;99.90
11043;DHT22;5574;48.786;10.120;2023-03-31T00:59:29;8.20;99.90
11043;DHT22;5574;48.786;10.120;2023-03-31T01:01:59;8.20;99.90
11043;DHT22;5574;48.786;10.120;2023-03-31T01:04:31;8.20;99.90
11043;DHT22;5574;48.786;10.120;2023-03-31T01:07:04;8.20;99.90
11043;DHT22;5574;48.786;10.120;2023-03-31T01:09:33;8.30;99.90
11043;DHT22;5574;48.786;10.120;2023-03-31T01:12:06;8.20;99.90
11043;DHT22;5574;48.786;10.120;2023-03-31T01:14:33;8.20;99.90
11043;DHT22;5574;48.786;10.120;2023-03-31T01:17:02;8.30;99.90
11043;DHT22;5574;48.786;10.120;2023-03-31T01:19:38;8.30;99.90
11043;DHT22;5574;48.786;10.120;2023-03-31T01:22:31;8.30;99.90
11043;DHT22;5574;48.786;10.120;2023-03-31T01:25:30;8.30;99.90
11043;DHT22;5574;48.786;10.120;2023-03-31T01:28:10;8.30;99.90
11043;DHT22;5574;48.786;10.120;2023-03-31T01:31:05;8.40;99.90
11043;DHT22;5574;48.786;10.120;2023-03-31T01:36:50;8.40;99.90
11043;DHT22;5574;48.786;10.120;2023-03-31T01:39:57;8.40;99.90
11043;DHT22;5574;48.786;10.120;2023-03-31T01:42:31;8.40;99.90
11043;DHT22;5574;48.786;10.120;2023-03-31T01:45:05;8.40;99.90
11043;DHT22;5574;48.786;10.120;2023-03-31T01:47:36;8.40;99.90
11043;DHT22;5574;48.786;10.120;2023-03-31T01:50:09;8.30;99.90
11043;DHT22;5574;48.786;10.120;2023-03-31T01:52:40;8.40;99.90
11043;DHT22;5574;48.786;10.120;2023-03-31T01:55:12;8.30;99.90
11043;DHT22;5574;48.786;10.120;2023-03-31T01:57:45;8.30;99.90
11043;DHT22;5574;48.786;10.120;2023-03-31T02:00:15;8.30;99.90
11043;DHT22;5574;48.786;10.120;2023-03-31T02:02:47;8.30;99.90
11043;DHT22;5574;48.786;10.120;2023-03-31T02:05:17;8.30;99.90
11043;DHT22;5574;48.786;10.120;2023-03-31T02:07:48;8.40;99.90
11043;DHT22;5574;48.786;10.120;2023-03-31T02:10:21;8.40;99.90
11043;DHT22;5574;48.786;10.120;2023-03-31T02:12:49;8.40;99.90
11043;DHT22;5574;48.786;10.120;2023-03-31T02:15:20;8.40;99.90
11043;DHT22;5574;48.786;10.120;2023-03-31T02:17:50;8.40;99.90
11043;DHT22;5574;48.786;10.120;2023-03-31T02:20:20;8.40;99.90
11043;DHT22;5574;48.786;10.120;2023-03-31T02:22:49;8.40;99.90
11043;DHT22;5574;48.786;10.120;2023-03-31T02:25:23;8.50;99.90
11043;DHT22;5574;48.786;10.120;2023-03-31T02:27:54;8.50;99.90
11043;DHT22;5574;48.786;10.120;2023-03-31T02:30:24;8.50;99.90
11043;DHT22;5574;48.786;10.120;2023-03-31T02:32:54;8.40;99.90
11043;DHT22;5574;48.786;10.120;2023-03-31T02:35:21;8.40;99.90
11043;DHT22;5574;48.786;10.120;2023-03-31T02:37:49;8.40;99.90
11043;DHT22;5574;48.786;10.120;2023-03-31T02:40:18;8.40;99.90
11043;DHT22;5574;48.786;10.120;2023-03-31T02:42:48;8.50;99.90
11043;DHT22;5574;48.786;10.120;2023-03-31T02:45:43;8.50;99.90
11043;DHT22;5574;48.786;10.120;2023-03-31T02:48:14;8.60;99.90
11043;DHT22;5574;48.786;10.120;2023-03-31T02:53:42;8.70;99.90
11043;DHT22;5574;48.786;10.120;2023-03-31T02:56:29;8.70;99.90
11043;DHT22;5574;48.786;10.120;2023-03-31T02:59:14;8.80;99.90
11043;DHT22;5574;48.786;10.120;2023-03-31T03:01:56;8.70;99.90
11043;DHT22;5574;48.786;10.120;2023-03-31T03:04:48;8.80;99.90
11043;DHT22;5574;48.786;10.120;2023-03-31T03:07:23;8.80;99.90
11043;DHT22;5574;48.786;10.120;2023-03-31T03:09:58;8.80;99.90
11043;DHT22;5574;48.786;10.120;2023-03-31T03:12:32;8.80;99.90
11043;DHT22;5574;48.786;10.120;2023-03-31T03:15:05;8.90;99.90
11043;DHT22;5574;48.786;10.120;2023-03-31T03:17:35;8.90;99.90
11043;DHT22;5574;48.786;10.120;2023-03-31T03:20:04;8.90;99.90
11043;DHT22;5574;48.786;10.120;2023-03-31T03:22:33;8.80;99.90
11043;DHT22;5574;48.786;10.120;2023-03-31T03:25:00;8.90;99.90
11043;DHT22;5574;48.786;10.120;2023-03-31T03:27:27;8.80;99.90
11043;DHT22;5574;48.786;10.120;2023-03-31T03:29:54;8.90;99.90
11043;DHT22;5574;48.786;10.120;2023-03-31T03:32:23;8.90;99.90
11043;DHT22;5574;48.786;10.120;2023-03-31T03:34:50;8.90;99.90
11043;DHT22;5574;48.786;10.120;2023-03-31T03:37:16;9.00;99.90
11043;DHT22;5574;48.786;10.120;2023-03-31T03:39:43;9.00;99.90
11043;DHT22;5574;48.786;10.120;2023-03-31T03:42:10;9.00;99.90
11043;DHT22;5574;48.786;10.120;2023-03-31T03:44:36;9.00;99.90
11043;DHT22;5574;48.786;10.120;2023-03-31T03:47:03;9.10;99.90
11043;DHT22;5574;48.786;10.120;2023-03-31T03:49:31;9.00;99.90
11043;DHT22;5574;48.786;10.120;2023-03-31T03:51:58;9.00;99.90
11043;DHT22;5574;48.786;10.120;2023-03-31T03:54:24;9.00;99.90
11043;DHT22;5574;48.786;10.120;2023-03-31T03:56:51;9.00;99.90
11043;DHT22;5574;48.786;10.120;2023-03-31T03:59:18;9.10;99.90
11043;DHT22;5574;48.786;10.120;2023-03-31T04:01:45;9.10;99.90
11043;DHT22;5574;48.786;10.120;2023-03-31T04:04:11;9.10;99.90
11043;DHT22;5574;48.786;10.120;2023-03-31T04:06:39;9.10;99.90
11043;DHT22;5574;48.786;10.120;2023-03-31T04:09:06;9.10;99.90
11043;DHT22;5574;48.786;10.120;2023-03-31T04:11:33;9.10;99.90
11043;DHT22;5574;48.786;10.120;2023-03-31T04:14:00;9.10;99.90
11043;DHT22;5574;48.786;10.120;2023-03-31T04:16:27;9.10;99.90
11043;DHT22;5574;48.786;10.120;2023-03-31T04:18:54;9.10;99.90
11043;DHT22;5574;48.786;10.120;2023-03-31T04:21:24;9.10;99.90
11043;DHT22;5574;48.786;10.120;2023-03-31T04:23:53;9.10;99.90
11043;DHT22;5574;48.786;10.120;2023-03-31T04:26:27;9.10;99.90
11043;DHT22;5574;48.786;10.120;2023-03-31T04:29:03;9.20;99.90
11043;DHT22;5574;48.786;10.120;2023-03-31T04:31:30;9.20;99.90
11043;DHT22;5574;48.786;10.120;2023-03-31T04:33:57;9.10;99.90
11043;DHT22;5574;48.786;10.120;2023-03-31T04:36:27;9.10;99.90
11043;DHT22;5574;48.786;10.120;2023-03-31T04:38:57;9.00;99.90
11043;DHT22;5574;48.786;10.120;2023-03-31T04:41:24;9.00;99.90
11043;DHT22;5574;48.786;10.120;2023-03-31T04:43:52;9.00;99.90
11043;DHT22;5574;48.786;10.120;2023-03-31T04:46:19;9.00;99.90
11043;DHT22;5574;48.786;10.120;2023-03-31T04:48:45;9.00;99.90
11043;DHT22;5574;48.786;10.120;2023-03-31T04:51:12;9.00;99.90
11043;DHT22;5574;48.786;10.120;2023-03-31T04:53:39;9.00;99.90
11043;DHT22;5574;48.786;10.120;2023-03-31T04:56:07;9.00;99.90
11043;DHT22;5574;48.786;10.120;2023-03-31T04:58:35;9.00;99.90
11043;DHT22;5574;48.786;10.120;2023-03-31T05:01:01;9.00;99.90
11043;DHT22;5574;48.786;10.120;2023-03-31T05:03:30;9.00;99.90
11043;DHT22;5574;48.786;10.120;2023-03-31T05:05:57;9.00;99.90
11043;DHT22;5574;48.786;10.120;2023-03-31T05:08:24;9.00;99.90
11043;DHT22;5574;48.786;10.120;2023-03-31T05:10:51;9.00;99.90
11043;DHT22;5574;48.786;10.120;2023-03-31T05:13:20;9.00;99.90
11043;DHT22;5574;48.786;10.120;2023-03-31T05:15:46;9.00;99.90
11043;DHT22;5574;48.786;10.120;2023-03-31T05:18:15;9.00;99.90
11043;DHT22;5574;48.786;10.120;2023-03-31T05:20:41;9.00;99.90
11043;DHT22;5574;48.786;10.120;2023-03-31T05:23:08;9.00;99.90
11043;DHT22;5574;48.786;10.120;2023-03-31T05:25:35;9.00;99.90
11043;DHT22;5574;48.786;10.120;2023-03-31T05:28:02;9.00;99.90
11043;DHT22;5574;48.786;10.120;2023-03-31T05:30:30;9.00;99.90
11043;DHT22;5574;48.786;10.120;2023-03-31T05:32:56;9.00;99.90
11043;DHT22;5574;48.786;10.120;2023-03-31T05:35:23;9.00;99.90
11043;DHT22;5574;48.786;10.120;2023-03-31T05:37:50;9.10;99.90
11043;DHT22;5574;48.786;10.120;2023-03-31T05:40:17;9.10;99.90
11043;DHT22;5574;48.786;10.120;2023-03-31T05:42:44;9.10;99.90
11043;DHT22;5574;48.786;10.120;2023-03-31T05:45:10;9.10;99.90
11043;DHT22;5574;48.786;10.120;2023-03-31T05:47:39;9.20;99.90
11043;DHT22;5574;48.786;10.120;2023-03-31T05:50:06;9.20;99.90
11043;DHT22;5574;48.786;10.120;2023-03-31T05:52:33;9.20;99.90
11043;DHT22;5574;48.786;10.120;2023-03-31T05:55:00;9.30;99.90
11043;DHT22;5574;48.786;10.120;2023-03-31T05:57:27;9.20;99.90
11043;DHT22;5574;48.786;10.120;2023-03-31T05:59:54;9.30;99.90
11043;DHT22;5574;48.786;10.120;2023-03-31T06:02:20;9.30;99.90
11043;DHT22;5574;48.786;10.120;2023-03-31T06:04:48;9.30;99.90
11043;DHT22;5574;48.786;10.120;2023-03-31T06:07:16;9.30;99.90
11043;DHT22;5574;48.786;10.120;2023-03-31T06:09:44;9.30;99.90
11043;DHT22;5574;48.786;10.120;2023-03-31T06:12:11;9.30;99.90
11043;DHT22;5574;48.786;10.120;2023-03-31T06:14:37;9.30;99.90
11043;DHT22;5574;48.786;10.120;2023-03-31T06:17:04;9.30;99.90
11043;DHT22;5574;48.786;10.120;2023-03-31T06:19:31;9.30;99.90
11043;DHT22;5574;48.786;10.120;2023-03-31T06:21:59;9.30;99.90
11043;DHT22;5574;48.786;10.120;2023-03-31T06:24:25;9.30;99.90
11043;DHT22;5574;48.786;10.120;2023-03-31T06:26:52;9.20;99.90
11043;DHT22;5574;48.786;10.120;2023-03-31T06:29:19;9.30;99.90
11043;DHT22;5574;48.786;10.120;2023-03-31T06:31:46;9.30;99.90
11043;DHT22;5574;48.786;10.120;2023-03-31T06:34:12;9.30;99.90
11043;DHT22;5574;48.786;10.120;2023-03-31T06:36:39;9.30;99.90
11043;DHT22;5574;48.786;10.120;2023-03-31T06:39:07;9.40;99.90
11043;DHT22;5574;48.786;10.120;2023-03-31T06:41:34;9.30;99.90
11043;DHT22;5574;48.786;10.120;2023-03-31T06:44:01;9.30;99.90
11043;DHT22;5574;48.786;10.120;2023-03-31T06:46:27;9.30;99.90
11043;DHT22;5574;48.786;10.120;2023-03-31T06:48:54;9.30;99.90
11043;DHT22;5574;48.786;10.120;2023-03-31T06:51:21;9.30;99.90
11043;DHT22;5574;48.786;10.120;2023-03-31T06:53:47;9.40;99.90
11043;DHT22;5574;48.786;10.120;2023-03-31T06:56:15;9.40;99.90
11043;DHT22;5574;48.786;10.120;2023-03-31T06:58:42;9.40;99.90
11043;DHT22;5574;48.786;10.120;2023-03-31T07:01:09;9.40;99.90
11043;DHT22;5574;48.786;10.120;2023-03-31T07:03:36;9.50;99.90
11043;DHT22;5574;48.786;10.120;2023-03-31T07:06:03;9.40;99.90
11043;DHT22;5574;48.786;10.120;2023-03-31T07:08:30;9.50;99.90
11043;DHT22;5574;48.786;10.120;2023-03-31T07:10:58;9.40;99.90
11043;DHT22;5574;48.786;10.120;2023-03-31T07:13:26;9.40;99.90
11043;DHT22;5574;48.786;10.120;2023-03-31T07:15:54;9.50;99.90
11043;DHT22;5574;48.786;10.120;2023-03-31T07:18:21;9.50;99.90
11043;DHT22;5574;48.786;10.120;2023-03-31T07:20:51;9.50;99.90
11043;DHT22;5574;48.786;10.120;2023-03-31T07:23:18;9.50;99.90
11043;DHT22;5574;48.786;10.120;2023-03-31T07:25:46;9.50;99.90
11043;DHT22;5574;48.786;10.120;2023-03-31T07:28:13;9.50;99.90
11043;DHT22;5574;48.786;10.120;2023-03-31T07:30:41;9.50;99.90
11043;DHT22;5574;48.786;10.120;2023-03-31T07:33:08;9.50;99.90
11043;DHT22;5574;48.786;10.120;2023-03-31T07:35:37;9.50;99.90
11043;DHT22;5574;48.786;10.120;2023-03-31T07:38:04;9.50;99.90
11043;DHT22;5574;48.786;10.120;2023-03-31T07:40:30;9.50;99.90
11043;DHT22;5574;48.786;10.120;2023-03-31T07:42:57;9.50;99.90
11043;DHT22;5574;48.786;10.120;2023-03-31T07:45:25;9.40;99.90
11043;DHT22;5574;48.786;10.120;2023-03-31T07:47:53;9.40;99.90
11043;DHT22;5574;48.786;10.120;2023-03-31T07:50:21;9.40;99.90
11043;DHT22;5574;48.786;10.120;2023-03-31T07:52:48;9.40;99.90
11043;DHT22;5574;48.786;10.120;2023-03-31T07:55:16;9.40;99.90
11043;DHT22;5574;48.786;10.120;2023-03-31T07:57:44;9.40;99.90
11043;DHT22;5574;48.786;10.120;2023-03-31T08:00:13;9.50;99.90
11043;DHT22;5574;48.786;10.120;2023-03-31T08:02:40;9.60;99.90
11043;DHT22;5574;48.786;10.120;2023-03-31T08:05:13;9.70;99.90
11043;DHT22;5574;48.786;10.120;2023-03-31T08:07:42;9.70;99.90
11043;DHT22;5574;48.786;10.120;2023-03-31T08:10:12;9.80;99.90
11043;DHT22;5574;48.786;10.120;2023-03-31T08:12:39;9.80;99.90
11043;DHT22;5574;48.786;10.120;2023-03-31T08:15:07;9.80;99.90
11043;DHT22;5574;48.786;10.120;2023-03-31T08:17:34;9.90;99.90
11043;DHT22;5574;48.786;10.120;2023-03-31T08:20:01;9.90;99.90
11043;DHT22;5574;48.786;10.120;2023-03-31T08:22:32;9.90;99.90
11043;DHT22;5574;48.786;10.120;2023-03-31T08:24:59;9.90;99.90
11043;DHT22;5574;48.786;10.120;2023-03-31T08:27:25;9.90;99.90
11043;DHT22;5574;48.786;10.120;2023-03-31T08:29:52;10.00;99.90
11043;DHT22;5574;48.786;10.120;2023-03-31T08:32:21;10.00;99.90
11043;DHT22;5574;48.786;10.120;2023-03-31T08:34:48;10.00;99.90
11043;DHT22;5574;48.786;10.120;2023-03-31T08:37:14;10.10;99.90
11043;DHT22;5574;48.786;10.120;2023-03-31T08:39:42;10.10;99.90
11043;DHT22;5574;48.786;10.120;2023-03-31T08:42:14;10.20;99.90
11043;DHT22;5574;48.786;10.120;2023-03-31T08:44:44;10.20;99.90
11043;DHT22;5574;48.786;10.120;2023-03-31T08:47:17;10.40;99.90
11043;DHT22;5574;48.786;10.120;2023-03-31T08:49:48;10.70;99.90
11043;DHT22;5574;48.786;10.120;2023-03-31T08:52:19;11.00;99.90
11043;DHT22;5574;48.786;10.120;2023-03-31T08:54:51;11.30;99.90
11043;DHT22;5574;48.786;10.120;2023-03-31T08:57:23;11.60;99.90
11043;DHT22;5574;48.786;10.120;2023-03-31T08:59:51;11.80;99.90
11043;DHT22;5574;48.786;10.120;2023-03-31T09:02:28;11.90;99.90
11043;DHT22;5574;48.786;10.120;2023-03-31T09:08:05;12.30;99.90
11043;DHT22;5574;48.786;10.120;2023-03-31T09:10:49;12.30;99.90
11043;DHT22;5574;48.786;10.120;2023-03-31T09:13:46;12.40;99.90
11043;DHT22;5574;48.786;10.120;2023-03-31T09:16:21;12.50;99.90
11043;DHT22;5574;48.786;10.120;2023-03-31T09:18:52;12.60;99.90
11043;DHT22;5574;48.786;10.120;2023-03-31T09:21:25;12.90;99.90
11043;DHT22;5574;48.786;10.120;2023-03-31T09:23:57;13.10;99.90
11043;DHT22;5574;48.786;10.120;2023-03-31T09:26:35;13.20;99.90
11043;DHT22;5574;48.786;10.120;2023-03-31T09:29:05;13.30;99.90
11043;DHT22;5574;48.786;10.120;2023-03-31T09:31:34;13.50;99.90
11043;DHT22;5574;48.786;10.120;2023-03-31T09:34:11;13.50;99.90
11043;DHT22;5574;48.786;10.120;2023-03-31T09:36:38;13.60;99.90
11043;DHT22;5574;48.786;10.120;2023-03-31T09:39:05;13.70;99.90
11043;DHT22;5574;48.786;10.120;2023-03-31T09:41:33;13.80;99.90
11043;DHT22;5574;48.786;10.120;2023-03-31T09:44:00;13.80;99.90
11043;DHT22;5574;48.786;10.120;2023-03-31T09:46:30;13.80;99.90
11043;DHT22;5574;48.786;10.120;2023-03-31T09:49:01;13.90;99.90
11043;DHT22;5574;48.786;10.120;2023-03-31T09:51:33;14.00;99.90
11043;DHT22;5574;48.786;10.120;2023-03-31T09:54:06;14.10;99.90
11043;DHT22;5574;48.786;10.120;2023-03-31T09:56:46;14.20;99.90
11043;DHT22;5574;48.786;10.120;2023-03-31T09:59:15;14.20;99.90
11043;DHT22;5574;48.786;10.120;2023-03-31T10:01:44;14.10;99.90
11043;DHT22;5574;48.786;10.120;2023-03-31T10:04:17;13.90;99.90
11043;DHT22;5574;48.786;10.120;2023-03-31T10:06:44;13.80;99.90
11043;DHT22;5574;48.786;10.120;2023-03-31T10:09:12;13.70;99.90
11043;DHT22;5574;48.786;10.120;2023-03-31T10:11:39;13.70;99.90
11043;DHT22;5574;48.786;10.120;2023-03-31T10:14:24;13.80;99.90
11043;DHT22;5574;48.786;10.120;2023-03-31T10:16:53;13.80;99.90
11043;DHT22;5574;48.786;10.120;2023-03-31T10:19:21;13.80;99.90
11043;DHT22;5574;48.786;10.120;2023-03-31T10:21:56;13.80;99.90
11043;DHT22;5574;48.786;10.120;2023-03-31T10:24:24;13.90;99.90
11043;DHT22;5574;48.786;10.120;2023-03-31T10:26:53;14.10;99.90
11043;DHT22;5574;48.786;10.120;2023-03-31T10:29:27;14.10;99.90
11043;DHT22;5574;48.786;10.120;2023-03-31T10:31:54;14.10;99.90
11043;DHT22;5574;48.786;10.120;2023-03-31T10:34:22;14.00;99.90
11043;DHT22;5574;48.786;10.120;2023-03-31T10:36:50;14.00;99.90
11043;DHT22;5574;48.786;10.120;2023-03-31T10:39:18;14.10;99.90
11043;DHT22;5574;48.786;10.120;2023-03-31T10:41:49;14.40;99.90
11043;DHT22;5574;48.786;10.120;2023-03-31T10:44:34;14.70;99.90
11043;DHT22;5574;48.786;10.120;2023-03-31T10:47:05;14.90;99.90
11043;DHT22;5574;48.786;10.120;2023-03-31T10:49:37;15.00;99.90
11043;DHT22;5574;48.786;10.120;2023-03-31T10:52:17;15.10;99.90
11043;DHT22;5574;48.786;10.120;2023-03-31T10:54:49;15.20;99.90
11043;DHT22;5574;48.786;10.120;2023-03-31T10:57:17;15.40;99.90
11043;DHT22;5574;48.786;10.120;2023-03-31T10:59:59;15.60;99.90
11043;DHT22;5574;48.786;10.120;2023-03-31T11:03:00;15.80;99.90
11043;DHT22;5574;48.786;10.120;2023-03-31T11:05:31;15.90;99.90
11043;DHT22;5574;48.786;10.120;2023-03-31T11:08:10;15.70;99.90
11043;DHT22;5574;48.786;10.120;2023-03-31T11:10:51;15.50;99.90
11043;DHT22;5574;48.786;10.120;2023-03-31T11:13:25;15.20;99.90
11043;DHT22;5574;48.786;10.120;2023-03-31T11:16:02;15.00;99.90
11043;DHT22;5574;48.786;10.120;2023-03-31T11:18:37;14.90;99.90
11043;DHT22;5574;48.786;10.120;2023-03-31T11:21:16;15.10;99.90
11043;DHT22;5574;48.786;10.120;2023-03-31T11:23:51;15.20;99.90
11043;DHT22;5574;48.786;10.120;2023-03-31T11:26:26;15.50;99.90
11043;DHT22;5574;48.786;10.120;2023-03-31T11:29:05;15.70;99.90
11043;DHT22;5574;48.786;10.120;2023-03-31T11:31:45;15.70;97.90
11043;DHT22;5574;48.786;10.120;2023-03-31T11:34:23;15.90;97.80
11043;DHT22;5574;48.786;10.120;2023-03-31T11:37:10;16.10;98.10
11043;DHT22;5574;48.786;10.120;2023-03-31T11:39:49;16.10;98.10
11043;DHT22;5574;48.786;10.120;2023-03-31T11:42:20;16.10;97.30
11043;DHT22;5574;48.786;10.120;2023-03-31T11:44:51;16.20;98.00
11043;DHT22;5574;48.786;10.120;2023-03-31T11:47:22;16.20;96.80
11043;DHT22;5574;48.786;10.120;2023-03-31T11:49:52;15.70;96.80
11043;DHT22;5574;48.786;10.120;2023-03-31T11:52:26;15.50;97.80
11043;DHT22;5574;48.786;10.120;2023-03-31T11:54:55;15.60;97.80
11043;DHT22;5574;48.786;10.120;2023-03-31T11:57:28;15.50;97.70
11043;DHT22;5574;48.786;10.120;2023-03-31T11:59:59;15.30;97.60
11043;DHT22;5574;48.786;10.120;2023-03-31T12:02:37;15.10;97.90
11043;DHT22;5574;48.786;10.120;2023-03-31T12:05:07;14.90;97.90
11043;DHT22;5574;48.786;10.120;2023-03-31T12:07:40;14.60;99.20
11043;DHT22;5574;48.786;10.120;2023-03-31T12:10:15;14.20;99.90
11043;DHT22;5574;48.786;10.120;2023-03-31T12:12:48;12.90;99.90
11043;DHT22;5574;48.786;10.120;2023-03-31T12:15:20;12.20;99.90
11043;DHT22;5574;48.786;10.120;2023-03-31T12:17:54;11.60;99.90
11043;DHT22;5574;48.786;10.120;2023-03-31T12:20:28;11.30;99.90
11043;DHT22;5574;48.786;10.120;2023-03-31T12:22:57;10.90;99.90
11043;DHT22;5574;48.786;10.120;2023-03-31T12:25:30;10.80;99.90
11043;DHT22;5574;48.786;10.120;2023-03-31T12:28:02;10.60;99.90
11043;DHT22;5574;48.786;10.120;2023-03-31T12:30:31;10.50;99.90
11043;DHT22;5574;48.786;10.120;2023-03-31T12:33:06;10.30;99.90
11043;DHT22;5574;48.786;10.120;2023-03-31T12:35:44;10.10;99.90
11043;DHT22;5574;48.786;10.120;2023-03-31T12:38:32;10.00;99.90
11043;DHT22;5574;48.786;10.120;2023-03-31T12:41:04;10.10;99.90
11043;DHT22;5574;48.786;10.120;2023-03-31T12:44:00;10.40;99.90
11043;DHT22;5574;48.786;10.120;2023-03-31T12:46:41;10.70;99.90
11043;DHT22;5574;48.786;10.120;2023-03-31T12:52:17;11.50;99.90
11043;DHT22;5574;48.786;10.120;2023-03-31T12:55:18;11.60;99.90
11043;DHT22;5574;48.786;10.120;2023-03-31T12:57:48;11.70;99.90
11043;DHT22;5574;48.786;10.120;2023-03-31T13:00:23;11.60;99.90
11043;DHT22;5574;48.786;10.120;2023-03-31T13:02:50;11.60;99.90
11043;DHT22;5574;48.786;10.120;2023-03-31T13:05:47;11.60;99.90
11043;DHT22;5574;48.786;10.120;2023-03-31T13:08:51;11.80;99.90
11043;DHT22;5574;48.786;10.120;2023-03-31T13:11:19;12.10;99.90
11043;DHT22;5574;48.786;10.120;2023-03-31T13:13:57;12.40;99.90
11043;DHT22;5574;48.786;10.120;2023-03-31T13:16:25;12.50;99.90
11043;DHT22;5574;48.786;10.120;2023-03-31T13:18:53;12.50;99.90
11043;DHT22;5574;48.786;10.120;2023-03-31T13:21:22;12.60;99.90
11043;DHT22;5574;48.786;10.120;2023-03-31T13:23:49;12.70;99.90
11043;DHT22;5574;48.786;10.120;2023-03-31T13:26:36;12.70;99.90
11043;DHT22;5574;48.786;10.120;2023-03-31T13:29:18;12.80;99.90
11043;DHT22;5574;48.786;10.120;2023-03-31T13:32:14;12.90;99.90
11043;DHT22;5574;48.786;10.120;2023-03-31T13:34:48;13.20;99.90
11043;DHT22;5574;48.786;10.120;2023-03-31T13:37:28;13.40;99.90
11043;DHT22;5574;48.786;10.120;2023-03-31T13:40:12;13.50;99.90
11043;DHT22;5574;48.786;10.120;2023-03-31T13:43:02;13.70;99.90
11043;DHT22;5574;48.786;10.120;2023-03-31T13:45:47;13.70;99.90
11043;DHT22;5574;48.786;10.120;2023-03-31T13:48:29;13.70;99.90
11043;DHT22;5574;48.786;10.120;2023-03-31T13:51:14;13.50;99.90
11043;DHT22;5574;48.786;10.120;2023-03-31T13:54:02;13.30;99.90
11043;DHT22;5574;48.786;10.120;2023-03-31T13:56:51;13.30;99.90
11043;DHT22;5574;48.786;10.120;2023-03-31T13:59:33;13.20;99.90
11043;DHT22;5574;48.786;10.120;2023-03-31T14:02:26;13.10;99.90
11043;DHT22;5574;48.786;10.120;2023-03-31T14:05:24;13.20;99.90
11043;DHT22;5574;48.786;10.120;2023-03-31T14:07:55;13.00;99.90
11043;DHT22;5574;48.786;10.120;2023-03-31T14:10:28;13.00;99.90
11043;DHT22;5574;48.786;10.120;2023-03-31T14:13:09;13.00;99.90
11043;DHT22;5574;48.786;10.120;2023-03-31T14:15:39;12.90;99.90
11043;DHT22;5574;48.786;10.120;2023-03-31T14:18:09;12.80;99.90
11043;DHT22;5574;48.786;10.120;2023-03-31T14:20:43;12.80;99.90
11043;DHT22;5574;48.786;10.120;2023-03-31T14:23:27;12.80;99.90
11043;DHT22;5574;48.786;10.120;2023-03-31T14:26:01;12.70;99.90
11043;DHT22;5574;48.786;10.120;2023-03-31T14:28:49;12.70;99.90
11043;DHT22;5574;48.786;10.120;2023-03-31T14:31:25;12.60;99.90
11043;DHT22;5574;48.786;10.120;2023-03-31T14:34:11;12.60;99.90
11043;DHT22;5574;48.786;10.120;2023-03-31T14:36:46;12.40;99.90
11043;DHT22;5574;48.786;10.120;2023-03-31T14:39:20;12.20;99.90
11043;DHT22;5574;48.786;10.120;2023-03-31T14:41:52;12.10;99.90
11043;DHT22;5574;48.786;10.120;2023-03-31T14:44:19;12.00;99.90
11043;DHT22;5574;48.786;10.120;2023-03-31T14:46:46;12.00;99.90
11043;DHT22;5574;48.786;10.120;2023-03-31T14:49:18;11.90;99.90
11043;DHT22;5574;48.786;10.120;2023-03-31T14:51:46;11.80;99.90
11043;DHT22;5574;48.786;10.120;2023-03-31T14:54:15;11.70;99.90
11043;DHT22;5574;48.786;10.120;2023-03-31T14:56:44;11.60;99.90
11043;DHT22;5574;48.786;10.120;2023-03-31T14:59:18;11.50;99.90
11043;DHT22;5574;48.786;10.120;2023-03-31T15:01:47;11.20;99.90
11043;DHT22;5574;48.786;10.120;2023-03-31T15:04:16;11.20;99.90
11043;DHT22;5574;48.786;10.120;2023-03-31T15:06:45;11.30;99.90
11043;DHT22;5574;48.786;10.120;2023-03-31T15:09:18;11.40;99.90
11043;DHT22;5574;48.786;10.120;2023-03-31T15:11:47;11.40;99.90
11043;DHT22;5574;48.786;10.120;2023-03-31T15:14:19;11.40;99.90
11043;DHT22;5574;48.786;10.120;2023-03-31T15:16:49;11.50;99.90
11043;DHT22;5574;48.786;10.120;2023-03-31T15:19:18;11.50;99.90
11043;DHT22;5574;48.786;10.120;2023-03-31T15:21:45;11.50;99.90
11043;DHT22;5574;48.786;10.120;2023-03-31T15:24:13;11.80;99.90
11043;DHT22;5574;48.786;10.120;2023-03-31T15:26:43;12.00;99.90
11043;DHT22;5574;48.786;10.120;2023-03-31T15:29:15;12.30;99.90
11043;DHT22;5574;48.786;10.120;2023-03-31T15:31:44;12.40;99.90
11043;DHT22;5574;48.786;10.120;2023-03-31T15:34:14;12.30;99.90
11043;DHT22;5574;48.786;10.120;2023-03-31T15:36:41;12.20;99.90
11043;DHT22;5574;48.786;10.120;2023-03-31T15:39:10;12.30;99.90
11043;DHT22;5574;48.786;10.120;2023-03-31T15:41:39;12.40;99.90
11043;DHT22;5574;48.786;10.120;2023-03-31T15:44:27;12.40;99.90
11043;DHT22;5574;48.786;10.120;2023-03-31T15:46:57;12.50;99.90
11043;DHT22;5574;48.786;10.120;2023-03-31T15:49:25;12.50;99.90
11043;DHT22;5574;48.786;10.120;2023-03-31T15:51:51;12.50;99.90
11043;DHT22;5574;48.786;10.120;2023-03-31T15:54:32;12.50;99.90
11043;DHT22;5574;48.786;10.120;2023-03-31T15:57:01;12.50;99.90
11043;DHT22;5574;48.786;10.120;2023-03-31T15:59:29;12.40;99.90
11043;DHT22;5574;48.786;10.120;2023-03-31T16:01:59;12.40;99.90
11043;DHT22;5574;48.786;10.120;2023-03-31T16:04:29;12.40;99.90
11043;DHT22;5574;48.786;10.120;2023-03-31T16:07:00;12.30;99.90
11043;DHT22;5574;48.786;10.120;2023-03-31T16:09:40;12.30;99.90
11043;DHT22;5574;48.786;10.120;2023-03-31T16:12:28;12.20;99.90
11043;DHT22;5574;48.786;10.120;2023-03-31T16:14:58;12.20;99.90
11043;DHT22;5574;48.786;10.120;2023-03-31T16:17:33;12.10;99.90
11043;DHT22;5574;48.786;10.120;2023-03-31T16:20:04;11.90;99.90